sensor_id;sensor_type;location;lat;lon;timestamp;P1;durP1;ratioP1;P2;durP2;ratioP2
61096;SDS011;46977;50.936;6.908;2022-10-13T00:00:38;18.77;;;10.02;;
61096;SDS011;46977;50.936;6.908;2022-10-13T00:03:41;19.77;;;10.00;;
61096;SDS011;46977;50.936;6.908;2022-10-13T00:06:53;17.58;;;8.90;;
61096;SDS011;46977;50.936;6.908;2022-10-13T00:10:01;16.08;;;8.93;;
61096;SDS011;46977;50.936;6.908;2022-10-13T00:13:03;16.63;;;8.60;;
61096;SDS011;46977;50.936;6.908;2022-10-13T00:16:06;19.55;;;9.13;;
61096;SDS011;46977;50.936;6.908;2022-10-13T00:19:08;20.17;;;9.52;;
61096;SDS011;46977;50.936;6.908;2022-10-13T00:22:15;14.23;;;8.70;;
61096;SDS011;46977;50.936;6.908;2022-10-13T00:25:21;15.30;;;7.93;;
61096;SDS011;46977;50.936;6.908;2022-10-13T00:28:23;15.73;;;8.40;;
61096;SDS011;46977;50.936;6.908;2022-10-13T00:31:26;16.48;;;8.93;;
61096;SDS011;46977;50.936;6.908;2022-10-13T00:34:29;17.50;;;9.43;;
61096;SDS011;46977;50.936;6.908;2022-10-13T00:37:32;19.60;;;9.48;;
61096;SDS011;46977;50.936;6.908;2022-10-13T00:40:42;18.73;;;9.93;;
61096;SDS011;46977;50.936;6.908;2022-10-13T00:43:47;20.70;;;9.50;;
61096;SDS011;46977;50.936;6.908;2022-10-13T00:46:54;18.08;;;9.75;;
61096;SDS011;46977;50.936;6.908;2022-10-13T00:49:56;16.95;;;7.90;;
61096;SDS011;46977;50.936;6.908;2022-10-13T00:52:59;21.83;;;9.00;;
61096;SDS011;46977;50.936;6.908;2022-10-13T00:56:03;18.63;;;9.38;;
61096;SDS011;46977;50.936;6.908;2022-10-13T00:59:08;22.38;;;11.13;;
61096;SDS011;46977;50.936;6.908;2022-10-13T01:02:15;25.15;;;9.95;;
61096;SDS011;46977;50.936;6.908;2022-10-13T01:05:18;16.38;;;8.57;;
61096;SDS011;46977;50.936;6.908;2022-10-13T01:08:21;16.65;;;8.52;;
61096;SDS011;46977;50.936;6.908;2022-10-13T01:11:30;23.77;;;10.85;;
61096;SDS011;46977;50.936;6.908;2022-10-13T01:14:42;19.13;;;10.02;;
61096;SDS011;46977;50.936;6.908;2022-10-13T01:17:52;18.65;;;9.60;;
61096;SDS011;46977;50.936;6.908;2022-10-13T01:21:06;21.50;;;10.17;;
61096;SDS011;46977;50.936;6.908;2022-10-13T01:24:18;19.63;;;11.10;;
61096;SDS011;46977;50.936;6.908;2022-10-13T01:27:33;19.20;;;10.20;;
61096;SDS011;46977;50.936;6.908;2022-10-13T01:30:43;21.05;;;11.38;;
61096;SDS011;46977;50.936;6.908;2022-10-13T01:33:48;26.23;;;11.27;;
61096;SDS011;46977;50.936;6.908;2022-10-13T01:36:55;22.23;;;11.00;;
61096;SDS011;46977;50.936;6.908;2022-10-13T01:40:03;21.38;;;10.18;;
61096;SDS011;46977;50.936;6.908;2022-10-13T01:43:10;23.38;;;11.80;;
61096;SDS011;46977;50.936;6.908;2022-10-13T01:46:19;19.98;;;8.98;;
61096;SDS011;46977;50.936;6.908;2022-10-13T01:49:23;19.40;;;9.73;;
61096;SDS011;46977;50.936;6.908;2022-10-13T01:52:30;19.38;;;10.23;;
61096;SDS011;46977;50.936;6.908;2022-10-13T01:55:34;14.90;;;8.57;;
61096;SDS011;46977;50.936;6.908;2022-10-13T01:58:38;19.77;;;10.30;;
61096;SDS011;46977;50.936;6.908;2022-10-13T02:01:49;16.83;;;10.07;;
61096;SDS011;46977;50.936;6.908;2022-10-13T02:05:02;15.82;;;9.50;;
61096;SDS011;46977;50.936;6.908;2022-10-13T02:08:12;18.35;;;10.38;;
61096;SDS011;46977;50.936;6.908;2022-10-13T02:11:19;18.05;;;9.52;;
61096;SDS011;46977;50.936;6.908;2022-10-13T02:14:23;19.30;;;10.48;;
61096;SDS011;46977;50.936;6.908;2022-10-13T02:17:28;17.73;;;9.70;;
61096;SDS011;46977;50.936;6.908;2022-10-13T02:20:31;19.67;;;9.68;;
61096;SDS011;46977;50.936;6.908;2022-10-13T02:23:33;17.38;;;9.85;;
61096;SDS011;46977;50.936;6.908;2022-10-13T02:26:36;20.77;;;10.27;;
61096;SDS011;46977;50.936;6.908;2022-10-13T02:29:48;17.77;;;9.23;;
61096;SDS011;46977;50.936;6.908;2022-10-13T02:32:54;19.02;;;10.02;;
61096;SDS011;46977;50.936;6.908;2022-10-13T02:35:56;19.23;;;9.35;;
61096;SDS011;46977;50.936;6.908;2022-10-13T02:38:59;18.20;;;10.00;;
61096;SDS011;46977;50.936;6.908;2022-10-13T02:42:01;16.73;;;9.40;;
61096;SDS011;46977;50.936;6.908;2022-10-13T02:45:04;20.95;;;9.32;;
61096;SDS011;46977;50.936;6.908;2022-10-13T02:48:08;18.88;;;9.60;;
61096;SDS011;46977;50.936;6.908;2022-10-13T02:51:10;18.50;;;9.85;;
61096;SDS011;46977;50.936;6.908;2022-10-13T02:54:12;17.85;;;9.93;;
61096;SDS011;46977;50.936;6.908;2022-10-13T02:57:16;12.95;;;8.70;;
61096;SDS011;46977;50.936;6.908;2022-10-13T03:00:19;20.35;;;9.77;;
61096;SDS011;46977;50.936;6.908;2022-10-13T03:03:22;18.92;;;10.32;;
61096;SDS011;46977;50.936;6.908;2022-10-13T03:06:25;19.65;;;9.70;;
61096;SDS011;46977;50.936;6.908;2022-10-13T03:09:27;19.10;;;10.38;;
61096;SDS011;46977;50.936;6.908;2022-10-13T03:12:29;19.15;;;11.00;;
61096;SDS011;46977;50.936;6.908;2022-10-13T03:15:32;17.35;;;11.32;;
61096;SDS011;46977;50.936;6.908;2022-10-13T03:18:37;22.02;;;11.05;;
61096;SDS011;46977;50.936;6.908;2022-10-13T03:21:40;15.98;;;9.77;;
61096;SDS011;46977;50.936;6.908;2022-10-13T03:24:42;17.50;;;9.95;;
61096;SDS011;46977;50.936;6.908;2022-10-13T03:27:44;18.80;;;10.43;;
61096;SDS011;46977;50.936;6.908;2022-10-13T03:30:47;18.75;;;9.02;;
61096;SDS011;46977;50.936;6.908;2022-10-13T03:33:50;20.55;;;11.05;;
61096;SDS011;46977;50.936;6.908;2022-10-13T03:36:53;25.33;;;11.35;;
61096;SDS011;46977;50.936;6.908;2022-10-13T03:39:55;19.63;;;9.60;;
61096;SDS011;46977;50.936;6.908;2022-10-13T03:42:57;22.30;;;11.57;;
61096;SDS011;46977;50.936;6.908;2022-10-13T03:46:01;20.20;;;10.70;;
61096;SDS011;46977;50.936;6.908;2022-10-13T03:49:06;19.27;;;9.80;;
61096;SDS011;46977;50.936;6.908;2022-10-13T03:52:08;19.23;;;10.45;;
61096;SDS011;46977;50.936;6.908;2022-10-13T03:55:10;34.22;;;11.15;;
61096;SDS011;46977;50.936;6.908;2022-10-13T03:58:12;21.40;;;10.18;;
61096;SDS011;46977;50.936;6.908;2022-10-13T04:01:16;24.65;;;10.68;;
61096;SDS011;46977;50.936;6.908;2022-10-13T04:04:21;20.88;;;10.70;;
61096;SDS011;46977;50.936;6.908;2022-10-13T04:07:28;19.23;;;11.32;;
61096;SDS011;46977;50.936;6.908;2022-10-13T04:10:30;25.92;;;11.05;;
61096;SDS011;46977;50.936;6.908;2022-10-13T04:13:33;22.90;;;10.70;;
61096;SDS011;46977;50.936;6.908;2022-10-13T04:16:35;20.27;;;11.05;;
61096;SDS011;46977;50.936;6.908;2022-10-13T04:19:42;23.08;;;11.55;;
61096;SDS011;46977;50.936;6.908;2022-10-13T04:22:44;21.63;;;10.57;;
61096;SDS011;46977;50.936;6.908;2022-10-13T04:25:46;19.73;;;11.18;;
61096;SDS011;46977;50.936;6.908;2022-10-13T04:28:49;21.58;;;11.70;;
61096;SDS011;46977;50.936;6.908;2022-10-13T04:31:52;23.45;;;10.57;;
61096;SDS011;46977;50.936;6.908;2022-10-13T04:34:55;23.15;;;10.23;;
61096;SDS011;46977;50.936;6.908;2022-10-13T04:37:58;19.98;;;10.93;;
61096;SDS011;46977;50.936;6.908;2022-10-13T04:41:00;21.73;;;11.68;;
61096;SDS011;46977;50.936;6.908;2022-10-13T04:44:04;22.95;;;12.43;;
61096;SDS011;46977;50.936;6.908;2022-10-13T04:47:06;20.95;;;10.40;;
61096;SDS011;46977;50.936;6.908;2022-10-13T04:50:09;23.85;;;11.23;;
61096;SDS011;46977;50.936;6.908;2022-10-13T04:53:12;23.27;;;10.75;;
61096;SDS011;46977;50.936;6.908;2022-10-13T04:56:20;21.63;;;11.65;;
61096;SDS011;46977;50.936;6.908;2022-10-13T04:59:22;20.05;;;10.43;;
61096;SDS011;46977;50.936;6.908;2022-10-13T05:02:24;20.50;;;11.05;;
61096;SDS011;46977;50.936;6.908;2022-10-13T05:05:28;22.63;;;11.73;;
61096;SDS011;46977;50.936;6.908;2022-10-13T05:08:31;23.45;;;11.27;;
61096;SDS011;46977;50.936;6.908;2022-10-13T05:11:34;22.60;;;11.27;;
61096;SDS011;46977;50.936;6.908;2022-10-13T05:14:37;23.70;;;10.10;;
61096;SDS011;46977;50.936;6.908;2022-10-13T05:17:41;21.10;;;10.23;;
61096;SDS011;46977;50.936;6.908;2022-10-13T05:20:45;25.98;;;11.73;;
61096;SDS011;46977;50.936;6.908;2022-10-13T05:23:47;22.90;;;11.65;;
61096;SDS011;46977;50.936;6.908;2022-10-13T05:26:50;20.95;;;10.80;;
61096;SDS011;46977;50.936;6.908;2022-10-13T05:29:52;23.00;;;10.73;;
61096;SDS011;46977;50.936;6.908;2022-10-13T05:32:54;23.73;;;11.65;;
61096;SDS011;46977;50.936;6.908;2022-10-13T05:36:02;27.63;;;10.77;;
61096;SDS011;46977;50.936;6.908;2022-10-13T05:39:08;22.67;;;11.68;;
61096;SDS011;46977;50.936;6.908;2022-10-13T05:42:10;22.20;;;10.80;;
61096;SDS011;46977;50.936;6.908;2022-10-13T05:45:12;22.98;;;10.90;;
61096;SDS011;46977;50.936;6.908;2022-10-13T05:48:15;23.95;;;11.50;;
61096;SDS011;46977;50.936;6.908;2022-10-13T05:51:20;19.85;;;9.80;;
61096;SDS011;46977;50.936;6.908;2022-10-13T05:54:24;20.80;;;10.15;;
61096;SDS011;46977;50.936;6.908;2022-10-13T05:57:31;21.20;;;10.73;;
61096;SDS011;46977;50.936;6.908;2022-10-13T06:00:36;21.70;;;11.10;;
61096;SDS011;46977;50.936;6.908;2022-10-13T06:03:38;21.42;;;10.60;;
61096;SDS011;46977;50.936;6.908;2022-10-13T06:06:44;23.00;;;11.02;;
61096;SDS011;46977;50.936;6.908;2022-10-13T06:09:46;22.00;;;11.65;;
61096;SDS011;46977;50.936;6.908;2022-10-13T06:12:49;19.38;;;10.80;;
61096;SDS011;46977;50.936;6.908;2022-10-13T06:15:51;21.48;;;10.27;;
61096;SDS011;46977;50.936;6.908;2022-10-13T06:18:53;18.25;;;9.45;;
61096;SDS011;46977;50.936;6.908;2022-10-13T06:21:57;24.25;;;11.07;;
61096;SDS011;46977;50.936;6.908;2022-10-13T06:25:05;19.70;;;10.10;;
61096;SDS011;46977;50.936;6.908;2022-10-13T06:28:08;24.02;;;11.23;;
61096;SDS011;46977;50.936;6.908;2022-10-13T06:31:10;23.50;;;11.85;;
61096;SDS011;46977;50.936;6.908;2022-10-13T06:34:13;22.05;;;11.45;;
61096;SDS011;46977;50.936;6.908;2022-10-13T06:37:19;20.88;;;11.02;;
61096;SDS011;46977;50.936;6.908;2022-10-13T06:40:28;25.45;;;11.43;;
61096;SDS011;46977;50.936;6.908;2022-10-13T06:43:30;20.88;;;9.48;;
61096;SDS011;46977;50.936;6.908;2022-10-13T06:46:43;22.70;;;12.30;;
61096;SDS011;46977;50.936;6.908;2022-10-13T06:49:46;22.70;;;11.57;;
61096;SDS011;46977;50.936;6.908;2022-10-13T06:52:53;25.20;;;11.00;;
61096;SDS011;46977;50.936;6.908;2022-10-13T06:55:56;23.92;;;11.75;;
61096;SDS011;46977;50.936;6.908;2022-10-13T06:58:58;28.88;;;11.60;;
61096;SDS011;46977;50.936;6.908;2022-10-13T07:02:01;25.20;;;12.18;;
61096;SDS011;46977;50.936;6.908;2022-10-13T07:05:03;23.33;;;10.75;;
61096;SDS011;46977;50.936;6.908;2022-10-13T07:08:07;24.90;;;11.05;;
61096;SDS011;46977;50.936;6.908;2022-10-13T07:11:10;23.73;;;11.05;;
61096;SDS011;46977;50.936;6.908;2022-10-13T07:14:21;23.23;;;11.27;;
61096;SDS011;46977;50.936;6.908;2022-10-13T07:17:24;24.58;;;11.50;;
61096;SDS011;46977;50.936;6.908;2022-10-13T07:20:26;32.00;;;13.68;;
61096;SDS011;46977;50.936;6.908;2022-10-13T07:23:30;23.48;;;12.25;;
61096;SDS011;46977;50.936;6.908;2022-10-13T07:26:32;30.38;;;12.30;;
61096;SDS011;46977;50.936;6.908;2022-10-13T07:29:34;23.08;;;11.13;;
61096;SDS011;46977;50.936;6.908;2022-10-13T07:32:37;22.85;;;11.02;;
61096;SDS011;46977;50.936;6.908;2022-10-13T07:35:40;19.25;;;11.30;;
61096;SDS011;46977;50.936;6.908;2022-10-13T07:38:44;22.27;;;11.70;;
61096;SDS011;46977;50.936;6.908;2022-10-13T07:41:46;23.23;;;10.13;;
61096;SDS011;46977;50.936;6.908;2022-10-13T07:44:52;22.98;;;10.35;;
61096;SDS011;46977;50.936;6.908;2022-10-13T07:47:56;24.50;;;11.52;;
61096;SDS011;46977;50.936;6.908;2022-10-13T07:51:01;25.50;;;11.43;;
61096;SDS011;46977;50.936;6.908;2022-10-13T07:54:06;22.90;;;10.77;;
61096;SDS011;46977;50.936;6.908;2022-10-13T07:57:10;23.45;;;11.23;;
61096;SDS011;46977;50.936;6.908;2022-10-13T08:00:12;22.85;;;11.32;;
61096;SDS011;46977;50.936;6.908;2022-10-13T08:03:15;22.52;;;11.57;;
61096;SDS011;46977;50.936;6.908;2022-10-13T08:06:17;24.10;;;10.85;;
61096;SDS011;46977;50.936;6.908;2022-10-13T08:09:21;26.75;;;11.13;;
61096;SDS011;46977;50.936;6.908;2022-10-13T08:12:24;25.20;;;11.38;;
61096;SDS011;46977;50.936;6.908;2022-10-13T08:15:26;31.25;;;12.30;;
61096;SDS011;46977;50.936;6.908;2022-10-13T08:18:29;26.50;;;12.18;;
61096;SDS011;46977;50.936;6.908;2022-10-13T08:21:31;25.05;;;11.80;;
61096;SDS011;46977;50.936;6.908;2022-10-13T08:24:55;20.83;;;11.10;;
61096;SDS011;46977;50.936;6.908;2022-10-13T08:27:59;18.63;;;11.38;;
61096;SDS011;46977;50.936;6.908;2022-10-13T08:31:01;24.02;;;11.00;;
61096;SDS011;46977;50.936;6.908;2022-10-13T08:34:04;24.88;;;12.00;;
61096;SDS011;46977;50.936;6.908;2022-10-13T08:37:10;20.85;;;11.25;;
61096;SDS011;46977;50.936;6.908;2022-10-13T08:40:16;20.17;;;11.27;;
61096;SDS011;46977;50.936;6.908;2022-10-13T08:43:21;25.38;;;12.68;;
61096;SDS011;46977;50.936;6.908;2022-10-13T08:46:24;20.35;;;10.18;;
61096;SDS011;46977;50.936;6.908;2022-10-13T08:49:29;24.70;;;11.73;;
61096;SDS011;46977;50.936;6.908;2022-10-13T08:52:41;21.85;;;10.90;;
61096;SDS011;46977;50.936;6.908;2022-10-13T08:55:48;29.50;;;11.98;;
61096;SDS011;46977;50.936;6.908;2022-10-13T08:58:52;30.40;;;11.50;;
61096;SDS011;46977;50.936;6.908;2022-10-13T09:01:57;23.17;;;11.43;;
61096;SDS011;46977;50.936;6.908;2022-10-13T09:05:00;27.38;;;11.35;;
61096;SDS011;46977;50.936;6.908;2022-10-13T09:08:08;23.10;;;10.50;;
61096;SDS011;46977;50.936;6.908;2022-10-13T09:11:17;24.75;;;11.52;;
61096;SDS011;46977;50.936;6.908;2022-10-13T09:14:20;27.92;;;12.48;;
61096;SDS011;46977;50.936;6.908;2022-10-13T09:17:25;23.98;;;12.25;;
61096;SDS011;46977;50.936;6.908;2022-10-13T09:20:28;23.50;;;10.18;;
61096;SDS011;46977;50.936;6.908;2022-10-13T09:23:30;22.35;;;11.10;;
61096;SDS011;46977;50.936;6.908;2022-10-13T09:26:37;24.95;;;11.75;;
61096;SDS011;46977;50.936;6.908;2022-10-13T09:29:40;24.45;;;11.85;;
61096;SDS011;46977;50.936;6.908;2022-10-13T09:32:43;26.67;;;11.40;;
61096;SDS011;46977;50.936;6.908;2022-10-13T09:35:46;21.70;;;10.18;;
61096;SDS011;46977;50.936;6.908;2022-10-13T09:39:03;26.63;;;11.45;;
61096;SDS011;46977;50.936;6.908;2022-10-13T09:42:15;19.15;;;10.10;;
61096;SDS011;46977;50.936;6.908;2022-10-13T09:45:21;22.88;;;11.20;;
61096;SDS011;46977;50.936;6.908;2022-10-13T09:48:27;18.90;;;11.10;;
61096;SDS011;46977;50.936;6.908;2022-10-13T09:51:33;24.77;;;10.85;;
61096;SDS011;46977;50.936;6.908;2022-10-13T09:54:48;22.35;;;11.27;;
61096;SDS011;46977;50.936;6.908;2022-10-13T09:57:53;24.70;;;11.68;;
61096;SDS011;46977;50.936;6.908;2022-10-13T10:00:56;26.30;;;11.02;;
61096;SDS011;46977;50.936;6.908;2022-10-13T10:04:00;21.73;;;10.82;;
61096;SDS011;46977;50.936;6.908;2022-10-13T10:07:08;18.38;;;10.52;;
61096;SDS011;46977;50.936;6.908;2022-10-13T10:10:21;23.60;;;11.27;;
61096;SDS011;46977;50.936;6.908;2022-10-13T10:13:30;22.52;;;10.15;;
61096;SDS011;46977;50.936;6.908;2022-10-13T10:16:34;20.13;;;10.32;;
61096;SDS011;46977;50.936;6.908;2022-10-13T10:19:46;19.58;;;9.95;;
61096;SDS011;46977;50.936;6.908;2022-10-13T10:22:55;20.83;;;10.18;;
61096;SDS011;46977;50.936;6.908;2022-10-13T10:26:01;21.08;;;10.38;;
61096;SDS011;46977;50.936;6.908;2022-10-13T10:29:13;18.08;;;10.20;;
61096;SDS011;46977;50.936;6.908;2022-10-13T10:32:25;19.20;;;10.60;;
61096;SDS011;46977;50.936;6.908;2022-10-13T10:35:32;18.77;;;10.00;;
61096;SDS011;46977;50.936;6.908;2022-10-13T10:38:41;20.65;;;10.73;;
61096;SDS011;46977;50.936;6.908;2022-10-13T10:41:47;18.95;;;9.63;;
61096;SDS011;46977;50.936;6.908;2022-10-13T10:44:53;17.33;;;9.40;;
61096;SDS011;46977;50.936;6.908;2022-10-13T10:47:58;19.60;;;9.05;;
61096;SDS011;46977;50.936;6.908;2022-10-13T10:51:02;20.90;;;9.52;;
61096;SDS011;46977;50.936;6.908;2022-10-13T10:54:12;18.48;;;9.27;;
61096;SDS011;46977;50.936;6.908;2022-10-13T10:57:21;24.92;;;10.10;;
61096;SDS011;46977;50.936;6.908;2022-10-13T11:00:31;19.77;;;9.70;;
61096;SDS011;46977;50.936;6.908;2022-10-13T11:03:38;15.45;;;8.95;;
61096;SDS011;46977;50.936;6.908;2022-10-13T11:06:42;19.40;;;9.55;;
61096;SDS011;46977;50.936;6.908;2022-10-13T11:13:19;22.77;;;9.43;;
61096;SDS011;46977;50.936;6.908;2022-10-13T11:16:26;17.83;;;9.13;;
61096;SDS011;46977;50.936;6.908;2022-10-13T11:19:31;18.15;;;8.10;;
61096;SDS011;46977;50.936;6.908;2022-10-13T11:22:34;17.38;;;8.00;;
61096;SDS011;46977;50.936;6.908;2022-10-13T11:25:37;18.73;;;8.05;;
61096;SDS011;46977;50.936;6.908;2022-10-13T11:28:44;15.23;;;7.70;;
61096;SDS011;46977;50.936;6.908;2022-10-13T11:31:51;20.05;;;8.93;;
61096;SDS011;46977;50.936;6.908;2022-10-13T11:35:01;17.73;;;8.75;;
61096;SDS011;46977;50.936;6.908;2022-10-13T11:38:22;17.35;;;7.97;;
61096;SDS011;46977;50.936;6.908;2022-10-13T11:41:30;16.23;;;7.28;;
61096;SDS011;46977;50.936;6.908;2022-10-13T11:44:36;16.20;;;7.63;;
61096;SDS011;46977;50.936;6.908;2022-10-13T11:47:52;13.35;;;6.25;;
61096;SDS011;46977;50.936;6.908;2022-10-13T11:51:08;11.15;;;5.03;;
61096;SDS011;46977;50.936;6.908;2022-10-13T11:54:22;10.32;;;4.50;;
61096;SDS011;46977;50.936;6.908;2022-10-13T11:57:27;7.45;;;4.55;;
61096;SDS011;46977;50.936;6.908;2022-10-13T12:00:35;6.20;;;4.10;;
61096;SDS011;46977;50.936;6.908;2022-10-13T12:03:40;8.45;;;4.07;;
61096;SDS011;46977;50.936;6.908;2022-10-13T12:06:45;9.90;;;4.43;;
61096;SDS011;46977;50.936;6.908;2022-10-13T12:09:49;11.10;;;4.50;;
61096;SDS011;46977;50.936;6.908;2022-10-13T12:12:55;8.73;;;4.68;;
61096;SDS011;46977;50.936;6.908;2022-10-13T12:16:00;9.80;;;4.13;;
61096;SDS011;46977;50.936;6.908;2022-10-13T12:19:14;10.18;;;5.28;;
61096;SDS011;46977;50.936;6.908;2022-10-13T12:22:20;12.52;;;4.43;;
61096;SDS011;46977;50.936;6.908;2022-10-13T12:25:24;7.22;;;3.70;;
61096;SDS011;46977;50.936;6.908;2022-10-13T12:28:42;8.40;;;3.97;;
61096;SDS011;46977;50.936;6.908;2022-10-13T12:31:48;9.32;;;3.78;;
61096;SDS011;46977;50.936;6.908;2022-10-13T12:34:52;9.85;;;4.45;;
61096;SDS011;46977;50.936;6.908;2022-10-13T12:37:55;8.25;;;4.13;;
61096;SDS011;46977;50.936;6.908;2022-10-13T12:40:58;9.82;;;4.82;;
61096;SDS011;46977;50.936;6.908;2022-10-13T12:44:02;10.30;;;4.88;;
61096;SDS011;46977;50.936;6.908;2022-10-13T12:50:39;13.25;;;5.88;;
61096;SDS011;46977;50.936;6.908;2022-10-13T12:53:41;12.35;;;5.07;;
61096;SDS011;46977;50.936;6.908;2022-10-13T12:56:44;8.52;;;5.43;;
61096;SDS011;46977;50.936;6.908;2022-10-13T12:59:47;16.50;;;6.97;;
61096;SDS011;46977;50.936;6.908;2022-10-13T13:02:50;8.40;;;5.43;;
61096;SDS011;46977;50.936;6.908;2022-10-13T13:06:07;16.15;;;5.75;;
61096;SDS011;46977;50.936;6.908;2022-10-13T13:09:20;11.27;;;6.05;;
61096;SDS011;46977;50.936;6.908;2022-10-13T13:12:27;12.10;;;6.13;;
61096;SDS011;46977;50.936;6.908;2022-10-13T13:15:32;10.95;;;6.80;;
61096;SDS011;46977;50.936;6.908;2022-10-13T13:18:37;13.30;;;6.10;;
61096;SDS011;46977;50.936;6.908;2022-10-13T13:21:45;13.30;;;6.45;;
61096;SDS011;46977;50.936;6.908;2022-10-13T13:24:50;13.45;;;7.20;;
61096;SDS011;46977;50.936;6.908;2022-10-13T13:27:53;14.43;;;7.38;;
61096;SDS011;46977;50.936;6.908;2022-10-13T13:30:55;13.55;;;6.70;;
61096;SDS011;46977;50.936;6.908;2022-10-13T13:33:57;17.33;;;7.20;;
61096;SDS011;46977;50.936;6.908;2022-10-13T13:37:01;9.98;;;6.80;;
61096;SDS011;46977;50.936;6.908;2022-10-13T13:40:03;12.20;;;7.40;;
61096;SDS011;46977;50.936;6.908;2022-10-13T13:43:07;11.60;;;6.57;;
61096;SDS011;46977;50.936;6.908;2022-10-13T13:46:11;14.20;;;7.15;;
61096;SDS011;46977;50.936;6.908;2022-10-13T13:49:15;14.60;;;7.68;;
61096;SDS011;46977;50.936;6.908;2022-10-13T13:52:19;18.15;;;6.95;;
61096;SDS011;46977;50.936;6.908;2022-10-13T13:55:22;13.73;;;7.10;;
61096;SDS011;46977;50.936;6.908;2022-10-13T13:58:25;12.32;;;7.82;;
61096;SDS011;46977;50.936;6.908;2022-10-13T14:01:27;18.88;;;8.60;;
61096;SDS011;46977;50.936;6.908;2022-10-13T14:04:29;17.05;;;8.60;;
61096;SDS011;46977;50.936;6.908;2022-10-13T14:07:33;18.80;;;8.50;;
61096;SDS011;46977;50.936;6.908;2022-10-13T14:10:37;15.60;;;8.23;;
61096;SDS011;46977;50.936;6.908;2022-10-13T14:13:40;14.90;;;7.90;;
61096;SDS011;46977;50.936;6.908;2022-10-13T14:16:43;17.52;;;8.75;;
61096;SDS011;46977;50.936;6.908;2022-10-13T14:19:46;15.98;;;8.52;;
61096;SDS011;46977;50.936;6.908;2022-10-13T14:22:49;16.83;;;8.45;;
61096;SDS011;46977;50.936;6.908;2022-10-13T14:25:52;20.67;;;9.15;;
61096;SDS011;46977;50.936;6.908;2022-10-13T14:28:56;16.55;;;8.73;;
61096;SDS011;46977;50.936;6.908;2022-10-13T14:31:59;18.10;;;9.15;;
61096;SDS011;46977;50.936;6.908;2022-10-13T14:35:03;18.38;;;9.32;;
61096;SDS011;46977;50.936;6.908;2022-10-13T14:38:07;18.75;;;8.85;;
61096;SDS011;46977;50.936;6.908;2022-10-13T14:41:10;16.75;;;8.15;;
61096;SDS011;46977;50.936;6.908;2022-10-13T14:44:12;15.02;;;8.43;;
61096;SDS011;46977;50.936;6.908;2022-10-13T14:47:18;17.42;;;8.93;;
61096;SDS011;46977;50.936;6.908;2022-10-13T14:50:21;21.35;;;8.60;;
61096;SDS011;46977;50.936;6.908;2022-10-13T14:53:32;22.13;;;9.52;;
61096;SDS011;46977;50.936;6.908;2022-10-13T14:56:35;16.05;;;8.60;;
61096;SDS011;46977;50.936;6.908;2022-10-13T14:59:37;17.75;;;9.98;;
61096;SDS011;46977;50.936;6.908;2022-10-13T15:02:39;19.52;;;9.23;;
61096;SDS011;46977;50.936;6.908;2022-10-13T15:05:42;13.93;;;8.50;;
61096;SDS011;46977;50.936;6.908;2022-10-13T15:08:53;15.88;;;9.27;;
61096;SDS011;46977;50.936;6.908;2022-10-13T15:11:57;16.15;;;8.60;;
61096;SDS011;46977;50.936;6.908;2022-10-13T15:15:00;18.73;;;8.43;;
61096;SDS011;46977;50.936;6.908;2022-10-13T15:18:03;16.95;;;8.32;;
61096;SDS011;46977;50.936;6.908;2022-10-13T15:27:06;15.95;;;9.27;;
61096;SDS011;46977;50.936;6.908;2022-10-13T15:31:06;16.70;;;8.90;;
61096;SDS011;46977;50.936;6.908;2022-10-13T15:35:37;15.65;;;8.60;;
61096;SDS011;46977;50.936;6.908;2022-10-13T16:13:03;17.77;;;8.90;;
61096;SDS011;46977;50.936;6.908;2022-10-13T16:38:15;18.77;;;9.45;;
61096;SDS011;46977;50.936;6.908;2022-10-13T16:41:17;24.58;;;10.38;;
61096;SDS011;46977;50.936;6.908;2022-10-13T16:44:20;19.77;;;10.18;;
61096;SDS011;46977;50.936;6.908;2022-10-13T16:47:22;28.85;;;11.38;;
61096;SDS011;46977;50.936;6.908;2022-10-13T16:50:25;22.15;;;9.85;;
61096;SDS011;46977;50.936;6.908;2022-10-13T16:53:28;28.60;;;16.50;;
61096;SDS011;46977;50.936;6.908;2022-10-13T16:56:31;27.40;;;14.68;;
61096;SDS011;46977;50.936;6.908;2022-10-13T16:59:33;21.10;;;10.43;;
61096;SDS011;46977;50.936;6.908;2022-10-13T17:02:36;20.17;;;10.43;;
61096;SDS011;46977;50.936;6.908;2022-10-13T17:05:38;24.75;;;11.40;;
61096;SDS011;46977;50.936;6.908;2022-10-13T17:08:41;23.38;;;10.98;;
61096;SDS011;46977;50.936;6.908;2022-10-13T17:11:44;27.38;;;11.23;;
61096;SDS011;46977;50.936;6.908;2022-10-13T17:14:47;26.25;;;11.60;;
61096;SDS011;46977;50.936;6.908;2022-10-13T17:17:49;19.10;;;11.27;;
61096;SDS011;46977;50.936;6.908;2022-10-13T17:20:52;21.58;;;11.38;;
61096;SDS011;46977;50.936;6.908;2022-10-13T17:23:56;29.52;;;12.48;;
61096;SDS011;46977;50.936;6.908;2022-10-13T17:26:59;24.50;;;13.30;;
61096;SDS011;46977;50.936;6.908;2022-10-13T17:30:03;25.38;;;11.43;;
61096;SDS011;46977;50.936;6.908;2022-10-13T17:33:07;21.98;;;11.77;;
61096;SDS011;46977;50.936;6.908;2022-10-13T17:36:11;28.67;;;12.90;;
61096;SDS011;46977;50.936;6.908;2022-10-13T17:39:17;24.23;;;11.82;;
61096;SDS011;46977;50.936;6.908;2022-10-13T17:42:19;31.38;;;13.70;;
61096;SDS011;46977;50.936;6.908;2022-10-13T17:45:22;27.80;;;13.68;;
61096;SDS011;46977;50.936;6.908;2022-10-13T17:48:25;24.45;;;12.43;;
61096;SDS011;46977;50.936;6.908;2022-10-13T17:51:27;27.45;;;13.52;;
61096;SDS011;46977;50.936;6.908;2022-10-13T17:54:31;33.10;;;14.18;;
61096;SDS011;46977;50.936;6.908;2022-10-13T17:57:34;27.38;;;14.48;;
61096;SDS011;46977;50.936;6.908;2022-10-13T18:00:36;29.17;;;13.45;;
61096;SDS011;46977;50.936;6.908;2022-10-13T18:03:59;28.00;;;13.82;;
61096;SDS011;46977;50.936;6.908;2022-10-13T18:07:02;28.92;;;13.40;;
61096;SDS011;46977;50.936;6.908;2022-10-13T18:10:07;25.10;;;14.18;;
61096;SDS011;46977;50.936;6.908;2022-10-13T18:13:09;29.92;;;14.57;;
61096;SDS011;46977;50.936;6.908;2022-10-13T18:16:13;26.45;;;13.20;;
61096;SDS011;46977;50.936;6.908;2022-10-13T18:19:16;33.45;;;15.50;;
61096;SDS011;46977;50.936;6.908;2022-10-13T18:22:19;28.52;;;13.98;;
61096;SDS011;46977;50.936;6.908;2022-10-13T18:25:23;26.33;;;13.60;;
61096;SDS011;46977;50.936;6.908;2022-10-13T18:28:27;28.60;;;13.07;;
61096;SDS011;46977;50.936;6.908;2022-10-13T18:31:31;28.55;;;12.98;;
61096;SDS011;46977;50.936;6.908;2022-10-13T18:34:34;22.33;;;12.50;;
61096;SDS011;46977;50.936;6.908;2022-10-13T18:37:37;25.52;;;11.70;;
61096;SDS011;46977;50.936;6.908;2022-10-13T18:40:40;21.77;;;10.98;;
61096;SDS011;46977;50.936;6.908;2022-10-13T18:43:43;27.73;;;13.38;;
61096;SDS011;46977;50.936;6.908;2022-10-13T18:46:48;26.10;;;12.35;;
61096;SDS011;46977;50.936;6.908;2022-10-13T18:49:51;26.95;;;12.90;;
61096;SDS011;46977;50.936;6.908;2022-10-13T18:52:53;20.52;;;10.95;;
61096;SDS011;46977;50.936;6.908;2022-10-13T18:56:01;27.25;;;10.68;;
61096;SDS011;46977;50.936;6.908;2022-10-13T18:59:04;27.38;;;10.82;;
61096;SDS011;46977;50.936;6.908;2022-10-13T19:02:07;26.00;;;10.95;;
61096;SDS011;46977;50.936;6.908;2022-10-13T19:05:10;19.95;;;10.40;;
61096;SDS011;46977;50.936;6.908;2022-10-13T19:08:12;23.88;;;11.98;;
61096;SDS011;46977;50.936;6.908;2022-10-13T19:11:18;25.33;;;10.82;;
61096;SDS011;46977;50.936;6.908;2022-10-13T19:14:22;27.10;;;12.10;;
61096;SDS011;46977;50.936;6.908;2022-10-13T19:17:25;25.33;;;10.85;;
61096;SDS011;46977;50.936;6.908;2022-10-13T19:20:27;23.92;;;11.30;;